Time;durP1;ratioP1;P1;durP2;ratioP2;P2;SDS_P1;SDS_P2;PMS_P1;PMS_P2;Temp;Humidity;BMP_temperature;BMP_pressure;BME280_temperature;BME280_humidity;BME280_pressure;Samples;Min_cycle;Max_cycle;Signal;HPM_P1;HPM_P2
2022/12/20 00:01:52;;;;;;;11.07;5.20;;;8.90;99.90;;;;;;5005042;28;20045;-75
2022/12/20 00:04:18;;;;;;;10.38;4.88;;;8.80;99.90;;;;;;5017991;28;20054;-74
2022/12/20 00:06:43;;;;;;;9.85;5.00;;;8.80;99.90;;;;;;5006631;28;20124;-73
2022/12/20 00:09:10;;;;;;;10.98;5.40;;;8.80;99.90;;;;;;5022056;28;20045;-73
2022/12/20 00:11:39;;;;;;;11.63;4.80;;;8.80;99.90;;;;;;4985114;28;20041;-73
2022/12/20 00:14:06;;;;;;;12.95;5.00;;;8.80;99.90;;;;;;4999845;28;20652;-74
2022/12/20 00:16:32;;;;;;;11.27;4.32;;;8.80;99.90;;;;;;5020431;28;20391;-75
2022/12/20 00:19:00;;;;;;;10.65;4.80;;;8.80;99.90;;;;;;5020546;28;20036;-74
2022/12/20 00:21:26;;;;;;;10.43;4.65;;;8.80;99.90;;;;;;5020378;28;20079;-73
2022/12/20 00:23:53;;;;;;;11.40;4.57;;;8.80;99.90;;;;;;4999692;28;20060;-74
2022/12/20 00:26:21;;;;;;;11.52;4.22;;;8.80;99.90;;;;;;5002175;28;20045;-75
2022/12/20 00:28:47;;;;;;;10.07;4.60;;;8.80;99.90;;;;;;5003242;28;20099;-75
2022/12/20 00:31:14;;;;;;;10.40;4.57;;;8.80;99.90;;;;;;5000952;28;20050;-75
2022/12/20 00:33:43;;;;;;;10.57;4.47;;;8.80;99.90;;;;;;5001538;28;21360;-75
2022/12/20 00:36:09;;;;;;;10.60;4.22;;;8.90;99.90;;;;;;5020229;28;20049;-74
2022/12/20 00:38:35;;;;;;;10.20;4.60;;;8.70;99.90;;;;;;5003404;28;20530;-75
2022/12/20 00:41:05;;;;;;;12.75;4.60;;;8.70;99.90;;;;;;5020797;28;20033;-74
2022/12/20 00:43:32;;;;;;;11.55;4.38;;;8.70;99.90;;;;;;5003794;28;21319;-74
2022/12/20 00:45:58;;;;;;;10.50;4.30;;;9.00;99.90;;;;;;5021599;28;20094;-75
2022/12/20 00:48:24;;;;;;;9.75;4.25;;;8.80;99.90;;;;;;5019494;28;20184;-73
2022/12/20 00:50:53;;;;;;;11.25;4.15;;;8.70;99.90;;;;;;5000817;28;20061;-75
2022/12/20 00:53:18;;;;;;;9.57;4.15;;;8.70;99.90;;;;;;5004312;28;20038;-74
2022/12/20 00:55:45;;;;;;;12.57;4.32;;;8.70;99.90;;;;;;5020545;28;20030;-74
2022/12/20 00:58:12;;;;;;;9.52;4.25;;;8.70;99.90;;;;;;5024533;28;20090;-75
2022/12/20 01:00:38;;;;;;;9.20;4.30;;;8.70;99.90;;;;;;5023235;28;20045;-73
2022/12/20 01:03:05;;;;;;;9.50;4.03;;;8.70;99.90;;;;;;5026912;28;20052;-75
2022/12/20 01:05:31;;;;;;;9.50;3.95;;;8.70;99.90;;;;;;5022812;28;20413;-74
2022/12/20 01:07:59;;;;;;;10.25;4.30;;;8.70;99.90;;;;;;5008401;28;20041;-75
2022/12/20 01:10:26;;;;;;;8.75;3.70;;;8.80;99.90;;;;;;5020951;28;20041;-74
2022/12/20 01:12:52;;;;;;;8.70;4.10;;;8.80;99.90;;;;;;5026424;28;20125;-75
2022/12/20 01:15:17;;;;;;;9.40;3.80;;;8.80;99.90;;;;;;5023050;28;20108;-75
2022/12/20 01:17:43;;;;;;;10.23;4.00;;;8.80;99.90;;;;;;5023101;28;20038;-74
2022/12/20 01:20:09;;;;;;;8.70;3.65;;;8.80;99.90;;;;;;5005747;28;20041;-75
2022/12/20 01:22:35;;;;;;;10.27;4.30;;;8.80;99.90;;;;;;4995948;28;20073;-74
2022/12/20 01:25:03;;;;;;;12.35;4.13;;;8.80;99.90;;;;;;5006204;28;20069;-74
2022/12/20 01:27:29;;;;;;;10.43;4.03;;;8.90;99.90;;;;;;5022157;28;20057;-74
2022/12/20 01:29:54;;;;;;;9.40;3.85;;;8.90;99.90;;;;;;5023878;28;20502;-74
2022/12/20 01:32:20;;;;;;;9.48;3.90;;;8.90;99.90;;;;;;5007956;28;20128;-75
2022/12/20 01:34:46;;;;;;;11.38;4.07;;;8.90;99.90;;;;;;5008292;28;20046;-75
2022/12/20 01:37:12;;;;;;;9.75;4.00;;;8.90;99.90;;;;;;5025502;28;20416;-75
2022/12/20 01:39:37;;;;;;;9.57;3.92;;;8.80;99.90;;;;;;5010698;28;20048;-75
2022/12/20 01:42:04;;;;;;;9.82;3.92;;;8.80;99.90;;;;;;5008626;28;20033;-74
2022/12/20 01:44:29;;;;;;;9.07;3.95;;;8.80;99.90;;;;;;5029667;28;20090;-75
2022/12/20 01:46:55;;;;;;;9.85;4.18;;;8.80;99.90;;;;;;5027605;28;20049;-75
2022/12/20 01:49:41;;;;;;;10.30;3.67;;;8.90;99.90;;;;;;5023180;28;20048;-75
2022/12/20 01:52:18;;;;;;;9.23;4.10;;;8.90;99.90;;;;;;5024857;28;20044;-75
2022/12/20 01:54:56;;;;;;;10.05;3.60;;;8.90;99.90;;;;;;5025802;28;20069;-75
2022/12/20 01:57:28;;;;;;;8.90;3.67;;;8.90;99.90;;;;;;5025385;28;20041;-74
2022/12/20 01:59:54;;;;;;;10.00;3.50;;;8.90;99.90;;;;;;5025442;28;20051;-74
2022/12/20 02:02:20;;;;;;;9.73;3.90;;;8.90;99.90;;;;;;5008866;28;20409;-73
2022/12/20 02:04:46;;;;;;;9.50;3.47;;;8.90;99.90;;;;;;5023661;28;20036;-75
2022/12/20 02:07:19;;;;;;;9.27;3.50;;;8.90;99.90;;;;;;5027966;28;20048;-74
2022/12/20 02:09:45;;;;;;;10.43;4.10;;;7.40;99.90;;;;;;5005440;28;20037;-74
2022/12/20 02:12:13;;;;;;;9.85;3.78;;;8.90;99.90;;;;;;5011858;28;20033;-75
2022/12/20 02:15:09;;;;;;;9.43;3.80;;;8.90;99.90;;;;;;5026000;28;20440;-75
2022/12/20 02:17:54;;;;;;;9.38;3.72;;;8.90;99.90;;;;;;4997075;28;20483;-75
2022/12/20 02:20:52;;;;;;;9.00;3.70;;;8.90;99.90;;;;;;5021722;28;20097;-75
2022/12/20 02:23:48;;;;;;;9.07;3.90;;;8.90;99.90;;;;;;4990331;28;20052;-73
2022/12/20 02:26:45;;;;;;;10.20;3.90;;;8.90;99.90;;;;;;5025010;28;20045;-73
2022/12/20 02:29:40;;;;;;;9.82;3.50;;;8.90;99.90;;;;;;5026399;28;20048;-74
2022/12/20 02:32:18;;;;;;;9.70;3.70;;;8.90;99.90;;;;;;5006165;28;20041;-75
2022/12/20 02:34:45;;;;;;;8.40;3.50;;;8.90;99.90;;;;;;5024903;28;20041;-73
2022/12/20 02:37:11;;;;;;;8.02;3.35;;;8.90;99.90;;;;;;5025008;28;20049;-75
2022/12/20 02:39:39;;;;;;;10.57;3.78;;;8.90;99.90;;;;;;5005125;28;20048;-74
2022/12/20 02:42:08;;;;;;;11.00;3.50;;;9.00;99.90;;;;;;5022058;28;20036;-74
2022/12/20 02:47:35;;;;;;;8.75;3.38;;;8.90;99.90;;;;;;5026721;28;20110;-75
2022/12/20 02:50:03;;;;;;;10.75;3.65;;;8.90;99.90;;;;;;5009586;28;20162;-75
2022/12/20 02:52:30;;;;;;;8.55;3.47;;;8.90;99.90;;;;;;5020808;28;20049;-75
2022/12/20 02:54:58;;;;;;;10.15;3.50;;;9.20;99.90;;;;;;5016634;28;20043;-75
2022/12/20 02:57:51;;;;;;;8.45;3.30;;;9.00;99.90;;;;;;5024171;28;20098;-74
2022/12/20 03:00:21;;;;;;;9.52;3.47;;;9.00;99.90;;;;;;5011051;28;20166;-74
2022/12/20 03:05:37;;;;;;;8.10;3.47;;;9.00;99.90;;;;;;5024333;28;20081;-75
2022/12/20 03:08:06;;;;;;;;;;;9.00;99.90;;;;;;5045560;28;20041;-74
2022/12/20 03:10:31;;;;;;;9.43;3.40;;;9.00;99.90;;;;;;5010102;28;19916;-74
2022/12/20 03:12:57;;;;;;;9.38;3.85;;;9.00;99.90;;;;;;5022357;28;20052;-75
2022/12/20 03:15:23;;;;;;;9.40;4.00;;;9.00;99.90;;;;;;5025024;28;20520;-75
2022/12/20 03:17:48;;;;;;;10.05;3.78;;;9.00;99.90;;;;;;5026129;28;20068;-75
2022/12/20 03:20:14;;;;;;;8.55;3.55;;;8.90;99.90;;;;;;4989648;28;20402;-75
2022/12/20 03:22:40;;;;;;;8.48;3.60;;;8.90;99.90;;;;;;5025271;28;20098;-75
2022/12/20 03:25:06;;;;;;;8.63;3.45;;;8.90;99.90;;;;;;5007381;28;20041;-74
2022/12/20 03:27:32;;;;;;;8.32;3.80;;;8.90;99.90;;;;;;5025264;28;20040;-74
2022/12/20 03:29:57;;;;;;;11.85;3.78;;;8.90;99.90;;;;;;5011506;28;20036;-74
2022/12/20 03:32:23;;;;;;;10.02;3.70;;;8.90;99.90;;;;;;5010968;28;20033;-74
2022/12/20 03:34:49;;;;;;;9.35;4.00;;;8.90;99.90;;;;;;4989417;28;20512;-74
2022/12/20 03:37:15;;;;;;;10.02;3.58;;;8.90;99.90;;;;;;5023918;28;20045;-75
2022/12/20 03:39:40;;;;;;;10.50;3.95;;;8.90;99.90;;;;;;5007365;28;21241;-75
2022/12/20 03:42:07;;;;;;;10.73;4.22;;;8.90;99.90;;;;;;5011669;28;20040;-74
2022/12/20 03:44:32;;;;;;;8.70;3.70;;;8.90;99.90;;;;;;5006541;28;20041;-75
2022/12/20 03:46:58;;;;;;;9.95;3.83;;;8.90;99.90;;;;;;5011448;28;20136;-75
2022/12/20 03:49:24;;;;;;;9.30;4.00;;;8.90;99.90;;;;;;5009881;28;20048;-75
2022/12/20 03:51:49;;;;;;;8.32;3.67;;;8.90;99.90;;;;;;5006644;28;20406;-75
2022/12/20 03:54:15;;;;;;;9.18;4.03;;;9.10;99.90;;;;;;5023108;28;20098;-75
2022/12/20 03:56:41;;;;;;;9.68;3.75;;;8.80;99.90;;;;;;5009822;28;20498;-75
2022/12/20 03:59:06;;;;;;;10.13;4.07;;;9.00;99.90;;;;;;5008169;28;20038;-75
2022/12/20 04:01:35;;;;;;;8.90;3.75;;;8.80;99.90;;;;;;5025000;28;20037;-75
2022/12/20 04:04:02;;;;;;;9.45;4.07;;;8.80;99.90;;;;;;5005426;28;20069;-76
2022/12/20 04:06:28;;;;;;;9.23;3.60;;;8.80;99.90;;;;;;5019522;28;20040;-75
2022/12/20 04:08:54;;;;;;;10.38;4.45;;;8.80;99.90;;;;;;5006009;28;20060;-75
2022/12/20 04:11:19;;;;;;;8.57;3.90;;;8.90;99.90;;;;;;5044410;28;20028;-75
2022/12/20 04:13:50;;;;;;;10.82;3.97;;;8.90;99.90;;;;;;5009486;28;20116;-73
2022/12/20 04:16:19;;;;;;;8.43;3.78;;;8.90;99.90;;;;;;5022190;28;20492;-74
2022/12/20 04:18:44;;;;;;;10.13;3.85;;;8.90;99.90;;;;;;5022572;28;20029;-75
2022/12/20 04:21:12;;;;;;;10.15;3.80;;;8.90;99.90;;;;;;5008036;28;20029;-75
2022/12/20 04:23:39;;;;;;;8.88;3.80;;;8.90;99.90;;;;;;5025084;28;20095;-75
2022/12/20 04:26:06;;;;;;;8.60;3.90;;;8.90;99.90;;;;;;5007931;28;20037;-75
2022/12/20 04:28:32;;;;;;;13.10;4.45;;;8.90;99.90;;;;;;5023971;28;20036;-73
2022/12/20 04:30:59;;;;;;;9.82;4.18;;;8.90;99.90;;;;;;5022443;28;20123;-75
2022/12/20 04:33:25;;;;;;;9.15;3.58;;;8.90;99.90;;;;;;5042908;28;20124;-75
2022/12/20 04:35:51;;;;;;;8.55;3.90;;;9.00;99.90;;;;;;5005515;28;20053;-73
2022/12/20 04:38:19;;;;;;;10.60;4.28;;;9.00;99.90;;;;;;5005724;28;20044;-75
2022/12/20 04:40:47;;;;;;;9.60;3.72;;;9.00;99.90;;;;;;5024298;28;20103;-76
2022/12/20 04:43:12;;;;;;;9.60;4.50;;;9.00;99.90;;;;;;5007946;28;20045;-75
2022/12/20 04:45:38;;;;;;;9.68;4.28;;;10.20;99.90;;;;;;5024385;28;20051;-74
2022/12/20 04:48:04;;;;;;;11.18;4.70;;;8.50;99.90;;;;;;5003709;28;20045;-74
2022/12/20 04:50:30;;;;;;;9.50;4.50;;;9.00;99.90;;;;;;5011985;28;20037;-75
2022/12/20 04:55:40;;;;;;;9.32;4.20;;;9.00;99.90;;;;;;5022547;28;20045;-74
2022/12/20 04:58:06;;;;;;;12.52;4.60;;;9.00;99.90;;;;;;5022651;28;20482;-75
2022/12/20 05:00:33;;;;;;;12.45;4.63;;;9.10;99.90;;;;;;5005553;28;20053;-75
2022/12/20 05:02:59;;;;;;;9.32;4.30;;;9.10;99.90;;;;;;5005459;28;20037;-75
2022/12/20 05:05:25;;;;;;;9.43;4.35;;;9.10;99.90;;;;;;5007298;28;20048;-74
2022/12/20 05:07:51;;;;;;;10.85;4.93;;;9.10;99.90;;;;;;5004926;28;20113;-75
2022/12/20 05:10:17;;;;;;;9.75;3.95;;;9.10;99.90;;;;;;5006243;28;20518;-75
2022/12/20 05:12:43;;;;;;;10.10;4.20;;;9.20;99.90;;;;;;5019867;28;20173;-75
2022/12/20 05:15:10;;;;;;;10.18;4.25;;;9.20;99.90;;;;;;5024184;28;20055;-74
2022/12/20 05:17:36;;;;;;;10.50;4.90;;;9.20;99.90;;;;;;5022289;28;20494;-74
2022/12/20 05:20:02;;;;;;;10.25;4.38;;;9.20;99.90;;;;;;5021711;28;20025;-74
2022/12/20 05:27:57;;;;;;;10.05;4.15;;;9.30;99.90;;;;;;5024541;28;20049;-74
2022/12/20 05:30:24;;;;;;;8.75;4.05;;;9.30;99.90;;;;;;5004766;28;20531;-74
2022/12/20 05:32:50;;;;;;;9.60;3.97;;;9.50;99.90;;;;;;5031812;28;20124;-74
2022/12/20 05:35:16;;;;;;;10.32;4.18;;;9.20;99.90;;;;;;5003023;28;20061;-75
2022/12/20 05:37:42;;;;;;;9.07;4.28;;;9.30;99.90;;;;;;5025154;28;20053;-75
2022/12/20 05:40:09;;;;;;;10.00;4.40;;;9.30;99.90;;;;;;5039175;28;20455;-73
2022/12/20 05:42:34;;;;;;;10.15;4.30;;;9.30;99.90;;;;;;5005623;28;20495;-75
2022/12/20 05:45:00;;;;;;;10.10;4.10;;;9.30;99.90;;;;;;5042766;28;20094;-74
2022/12/20 05:47:27;;;;;;;9.85;4.18;;;9.40;99.90;;;;;;5043285;28;20438;-75
2022/12/20 05:49:52;;;;;;;10.35;3.97;;;9.30;99.90;;;;;;5012139;28;20032;-75
2022/12/20 05:52:18;;;;;;;11.75;4.32;;;9.40;99.90;;;;;;5010010;28;20033;-73
2022/12/20 05:54:44;;;;;;;8.98;3.92;;;9.40;99.90;;;;;;5010224;28;20048;-75
2022/12/20 05:57:10;;;;;;;9.80;3.85;;;9.40;99.90;;;;;;5027683;28;20037;-75
2022/12/20 05:59:35;;;;;;;9.25;3.92;;;9.40;99.90;;;;;;5025776;28;20303;-74
2022/12/20 06:02:01;;;;;;;9.50;3.80;;;9.40;99.90;;;;;;5004248;28;20565;-75
2022/12/20 06:04:27;;;;;;;14.07;4.28;;;9.00;99.90;;;;;;4993398;28;20055;-75
2022/12/20 06:06:53;;;;;;;9.65;3.92;;;9.40;99.90;;;;;;5008873;28;20041;-75
2022/12/20 06:09:18;;;;;;;8.35;3.63;;;9.40;99.90;;;;;;5004941;28;20481;-75
2022/12/20 06:11:44;;;;;;;8.90;3.75;;;9.50;99.90;;;;;;5031465;28;20044;-75
2022/12/20 06:14:10;;;;;;;9.40;3.85;;;9.50;99.90;;;;;;5013486;28;20049;-74
2022/12/20 06:16:35;;;;;;;9.63;4.03;;;9.50;99.90;;;;;;5023741;28;20072;-74
2022/12/20 06:19:01;;;;;;;8.50;3.65;;;9.50;99.90;;;;;;5033191;28;20044;-75
2022/12/20 06:21:27;;;;;;;9.93;3.42;;;9.60;99.90;;;;;;5032790;28;20036;-75
2022/12/20 06:23:53;;;;;;;8.88;3.60;;;9.40;99.90;;;;;;5034111;28;20047;-74
2022/12/20 06:26:22;;;;;;;8.77;3.60;;;9.50;99.90;;;;;;5033154;28;20120;-74
2022/12/20 06:28:51;;;;;;;11.23;3.95;;;9.50;99.90;;;;;;5017961;28;20442;-73
2022/12/20 06:31:17;;;;;;;8.63;3.40;;;9.50;99.90;;;;;;5030680;28;20059;-75
2022/12/20 06:33:45;;;;;;;9.10;3.92;;;9.50;99.90;;;;;;5042294;28;20112;-75
2022/12/20 06:36:11;;;;;;;10.43;3.80;;;9.50;99.90;;;;;;5044043;28;20494;-74
2022/12/20 06:38:37;;;;;;;10.20;3.58;;;9.50;99.90;;;;;;5012836;28;20105;-75
2022/12/20 06:41:03;;;;;;;9.15;3.58;;;9.50;99.90;;;;;;5006151;28;20079;-74
2022/12/20 06:43:28;;;;;;;10.55;4.30;;;9.50;99.90;;;;;;5041811;28;20045;-75
2022/12/20 06:45:54;;;;;;;9.18;4.13;;;9.60;99.90;;;;;;5027315;28;20083;-75
2022/12/20 06:48:20;;;;;;;10.57;4.13;;;9.60;99.90;;;;;;5012300;28;20045;-76
2022/12/20 06:50:50;;;;;;;8.50;3.67;;;9.60;99.90;;;;;;4985927;28;20048;-76
2022/12/20 06:53:16;;;;;;;9.35;4.28;;;9.60;99.90;;;;;;5004796;28;20749;-75
2022/12/20 06:55:42;;;;;;;11.30;3.60;;;9.60;99.90;;;;;;5025136;28;20049;-75
2022/12/20 06:58:08;;;;;;;8.38;3.50;;;9.60;99.90;;;;;;4986669;28;20095;-74
2022/12/20 07:00:34;;;;;;;11.45;4.03;;;9.60;99.90;;;;;;5007628;28;20029;-74
2022/12/20 07:03:00;;;;;;;9.85;3.67;;;9.70;99.90;;;;;;5009597;28;20116;-75
2022/12/20 07:05:26;;;;;;;9.57;3.80;;;9.70;99.90;;;;;;5028146;28;21231;-74
2022/12/20 07:07:52;;;;;;;10.63;3.75;;;9.90;99.90;;;;;;5027421;28;20121;-75
2022/12/20 07:10:20;;;;;;;8.88;3.80;;;9.70;99.90;;;;;;5045493;28;20029;-75
2022/12/20 07:12:46;;;;;;;9.23;3.88;;;9.70;99.90;;;;;;5010799;28;20502;-76
2022/12/20 07:15:11;;;;;;;11.45;4.40;;;9.70;99.90;;;;;;5026392;28;20044;-74
2022/12/20 07:17:37;;;;;;;8.90;4.60;;;9.70;99.90;;;;;;5017060;28;20490;-75
2022/12/20 07:20:03;;;;;;;13.98;4.93;;;9.60;99.90;;;;;;5005161;28;20036;-75
2022/12/20 07:22:29;;;;;;;12.15;4.90;;;9.60;99.90;;;;;;5024728;28;20106;-74
2022/12/20 07:24:54;;;;;;;9.93;4.30;;;9.50;99.90;;;;;;5006317;28;20567;-75
2022/12/20 07:27:20;;;;;;;9.10;4.60;;;9.50;99.90;;;;;;4997077;28;20035;-76
2022/12/20 07:29:49;;;;;;;10.15;4.43;;;9.50;99.90;;;;;;5024150;28;20521;-75
2022/12/20 07:32:17;;;;;;;9.82;4.63;;;9.00;99.90;;;;;;5039292;28;20414;-75
2022/12/20 07:34:43;;;;;;;10.98;5.30;;;9.70;99.90;;;;;;5003493;28;20055;-75
2022/12/20 07:37:09;;;;;;;10.77;5.30;;;9.50;99.90;;;;;;5008641;28;20049;-75
2022/12/20 07:39:34;;;;;;;10.88;5.63;;;9.50;99.90;;;;;;5005427;28;20056;-75
2022/12/20 07:42:00;;;;;;;10.48;5.55;;;9.50;99.90;;;;;;5005067;28;20041;-75
2022/12/20 07:44:29;;;;;;;10.95;5.50;;;9.50;99.90;;;;;;4993259;28;20032;-75
2022/12/20 07:46:54;;;;;;;10.90;5.47;;;9.50;99.90;;;;;;5022275;28;20041;-74
2022/12/20 07:49:20;;;;;;;10.93;5.75;;;9.50;99.90;;;;;;5007030;28;20414;-75
2022/12/20 07:51:51;;;;;;;10.85;5.25;;;9.50;99.90;;;;;;5006809;28;20083;-74
2022/12/20 07:54:27;;;;;;;11.45;5.72;;;9.50;99.90;;;;;;5018024;28;20052;-75
2022/12/20 07:56:57;;;;;;;11.30;6.10;;;9.50;99.90;;;;;;5006596;28;20037;-74
2022/12/20 07:59:29;;;;;;;10.27;5.90;;;9.50;99.90;;;;;;5040939;28;20510;-74
2022/12/20 08:01:56;;;;;;;11.52;5.63;;;9.50;99.90;;;;;;5005575;28;20033;-74
2022/12/20 08:04:25;;;;;;;11.48;5.93;;;9.50;99.90;;;;;;5039225;28;20044;-74
2022/12/20 08:06:54;;;;;;;13.15;5.97;;;9.50;99.90;;;;;;5004841;28;20141;-75
2022/12/20 08:09:22;;;;;;;11.10;5.50;;;9.60;99.90;;;;;;5039643;28;20033;-75
2022/12/20 08:11:49;;;;;;;11.00;5.63;;;9.60;99.90;;;;;;5018759;28;20140;-75
2022/12/20 08:14:17;;;;;;;9.73;5.15;;;9.60;99.90;;;;;;5038783;28;20102;-74
2022/12/20 08:16:43;;;;;;;9.60;5.47;;;9.60;99.90;;;;;;5000432;28;20041;-75
2022/12/20 08:19:09;;;;;;;10.05;5.20;;;9.60;99.90;;;;;;5019369;28;20036;-74
2022/12/20 08:21:35;;;;;;;11.35;5.90;;;9.70;99.90;;;;;;5019661;28;20574;-74
2022/12/20 08:24:01;;;;;;;13.00;6.35;;;9.70;99.90;;;;;;5023886;28;20075;-75
2022/12/20 08:26:27;;;;;;;13.57;6.07;;;9.70;99.90;;;;;;5021410;28;20033;-74
2022/12/20 08:28:54;;;;;;;10.98;5.40;;;9.70;99.90;;;;;;5003402;28;20410;-75
2022/12/20 08:31:22;;;;;;;10.85;5.32;;;9.70;99.90;;;;;;5023545;28;20037;-75
2022/12/20 08:33:48;;;;;;;11.55;4.95;;;9.80;99.90;;;;;;5039139;28;20045;-74
2022/12/20 08:36:14;;;;;;;10.90;5.30;;;9.80;99.90;;;;;;5036930;28;20052;-74
2022/12/20 08:38:40;;;;;;;10.23;4.65;;;9.80;99.90;;;;;;5022933;28;20041;-75
2022/12/20 08:41:14;;;;;;;10.88;5.18;;;9.80;99.90;;;;;;4999734;28;20043;-75
2022/12/20 08:43:41;;;;;;;11.82;5.68;;;9.80;99.90;;;;;;5039530;28;20049;-75
2022/12/20 08:46:08;;;;;;;12.45;5.05;;;9.80;99.90;;;;;;5007493;28;20072;-75
2022/12/20 08:48:34;;;;;;;9.68;4.53;;;9.80;99.90;;;;;;5041990;28;20509;-74
2022/12/20 08:51:02;;;;;;;10.50;4.72;;;9.80;99.90;;;;;;5017553;28;20195;-75
2022/12/20 08:53:29;;;;;;;11.73;5.22;;;9.80;99.90;;;;;;5021789;28;20525;-74
2022/12/20 08:56:13;;;;;;;10.52;4.65;;;9.80;99.90;;;;;;5012109;28;20135;-75
2022/12/20 08:58:40;;;;;;;10.32;4.63;;;9.80;99.90;;;;;;5037975;28;20094;-76
2022/12/20 09:01:07;;;;;;;12.02;4.60;;;9.80;99.90;;;;;;5004455;28;20067;-74
2022/12/20 09:03:34;;;;;;;10.55;4.20;;;9.80;99.90;;;;;;5038931;28;20094;-75
2022/12/20 09:06:03;;;;;;;10.30;4.05;;;9.80;99.90;;;;;;5037101;28;20154;-74
2022/12/20 09:08:32;;;;;;;10.50;4.47;;;9.80;99.90;;;;;;5022169;28;20044;-75
2022/12/20 09:11:09;;;;;;;10.95;3.97;;;9.90;99.90;;;;;;4988999;28;20632;-76
2022/12/20 09:13:35;;;;;;;11.18;4.32;;;9.80;99.90;;;;;;5019764;28;20091;-75
2022/12/20 09:16:03;;;;;;;9.63;3.92;;;9.90;99.90;;;;;;5040816;28;20060;-75
2022/12/20 09:18:29;;;;;;;9.98;4.30;;;9.80;99.90;;;;;;5041602;28;20066;-74
2022/12/20 09:21:00;;;;;;;9.60;4.10;;;9.90;99.90;;;;;;5028352;28;20060;-74
2022/12/20 09:23:26;;;;;;;9.23;3.95;;;9.90;99.90;;;;;;5009094;28;20233;-74
2022/12/20 09:25:52;;;;;;;9.05;3.60;;;10.00;99.90;;;;;;5009670;28;20041;-75
2022/12/20 09:28:18;;;;;;;10.15;3.75;;;9.10;99.90;;;;;;5009157;28;20604;-74
2022/12/20 09:30:44;;;;;;;8.93;3.50;;;10.00;99.90;;;;;;5040033;28;20051;-75
2022/12/20 09:33:10;;;;;;;10.10;4.00;;;10.00;99.90;;;;;;5011190;28;20033;-74
2022/12/20 09:35:36;;;;;;;10.18;3.90;;;10.00;99.90;;;;;;5012221;28;21324;-75
2022/12/20 09:38:02;;;;;;;8.52;3.47;;;10.10;99.90;;;;;;5008430;28;20103;-76
2022/12/20 09:40:31;;;;;;;8.23;3.38;;;10.10;99.90;;;;;;5018912;28;20131;-73
2022/12/20 09:42:58;;;;;;;9.75;3.45;;;10.10;99.90;;;;;;5009573;28;20029;-74
2022/12/20 09:45:30;;;;;;;9.32;3.55;;;10.20;99.90;;;;;;5027236;28;20032;-75
2022/12/20 09:48:00;;;;;;;8.77;3.20;;;10.20;99.90;;;;;;5007913;28;20041;-74
2022/12/20 09:50:44;;;;;;;9.98;3.40;;;10.20;99.90;;;;;;5010441;28;20123;-75
2022/12/20 09:53:12;;;;;;;8.57;3.30;;;9.20;99.90;;;;;;5026544;28;20049;-75
2022/12/20 09:55:58;;;;;;;11.50;3.47;;;10.30;99.90;;;;;;5020964;28;20118;-75
2022/12/20 09:58:35;;;;;;;9.05;3.13;;;10.30;99.90;;;;;;5023042;28;20626;-76
2022/12/20 10:01:19;;;;;;;8.93;3.42;;;10.40;99.90;;;;;;5025355;28;20097;-75
2022/12/20 10:03:45;;;;;;;6.50;2.83;;;10.40;99.90;;;;;;5027303;28;20060;-75
2022/12/20 10:06:28;;;;;;;8.68;3.10;;;10.40;99.90;;;;;;4977851;28;20044;-75
2022/12/20 10:09:01;;;;;;;8.57;3.00;;;10.40;99.90;;;;;;5047128;28;20041;-75
2022/12/20 10:11:39;;;;;;;7.45;2.92;;;10.50;99.90;;;;;;5023560;28;20136;-75
2022/12/20 10:14:36;;;;;;;7.63;3.05;;;10.50;99.90;;;;;;5036377;28;20049;-74
2022/12/20 10:17:20;;;;;;;8.48;3.10;;;10.50;99.90;;;;;;5028283;28;20120;-74
2022/12/20 10:20:24;;;;;;;9.25;2.88;;;11.70;99.90;;;;;;5020407;28;20171;-76
2022/12/20 10:23:03;;;;;;;9.57;3.00;;;10.50;99.90;;;;;;5044414;28;20040;-75
2022/12/20 10:25:31;;;;;;;7.82;2.80;;;10.50;99.90;;;;;;5023487;28;20057;-75
2022/12/20 10:27:59;;;;;;;10.73;3.00;;;10.50;99.90;;;;;;5043970;28;20206;-73
2022/12/20 10:30:31;;;;;;;8.32;3.10;;;10.50;99.90;;;;;;5011924;28;20045;-75
2022/12/20 10:32:57;;;;;;;8.82;3.03;;;10.00;99.90;;;;;;5025794;28;20045;-75
2022/12/20 10:35:27;;;;;;;8.32;3.10;;;10.50;99.90;;;;;;5023476;28;20045;-75
2022/12/20 10:38:11;;;;;;;8.50;3.13;;;10.50;99.90;;;;;;5010341;28;20421;-75
2022/12/20 10:41:01;;;;;;;8.85;3.05;;;10.50;99.90;;;;;;5020916;28;20048;-75
2022/12/20 10:43:35;;;;;;;7.47;2.88;;;11.50;99.90;;;;;;5010774;28;20059;-74
2022/12/20 10:46:04;;;;;;;8.13;2.97;;;10.50;99.90;;;;;;5010490;28;20053;-75
2022/12/20 10:48:34;;;;;;;9.50;3.40;;;10.50;99.90;;;;;;5023222;28;20579;-75
2022/12/20 10:51:15;;;;;;;8.07;2.97;;;10.50;99.90;;;;;;5015042;28;20044;-77
2022/12/20 10:54:00;;;;;;;7.97;2.90;;;10.50;99.90;;;;;;5026504;28;20047;-75
2022/12/20 10:56:31;;;;;;;8.88;2.90;;;10.50;99.90;;;;;;5045980;28;20235;-75
2022/12/20 10:59:01;;;;;;;7.88;2.92;;;10.50;99.90;;;;;;5042108;28;20037;-74
2022/12/20 11:01:34;;;;;;;7.05;2.90;;;10.60;99.90;;;;;;5005622;28;20148;-74
2022/12/20 11:04:06;;;;;;;8.25;2.90;;;10.60;99.90;;;;;;5019918;28;20041;-75
2022/12/20 11:06:38;;;;;;;8.77;3.30;;;10.60;99.90;;;;;;5058412;28;20040;-75
2022/12/20 11:09:26;;;;;;;7.60;2.90;;;10.60;99.90;;;;;;5032355;28;20044;-76
2022/12/20 11:12:16;;;;;;;8.15;3.13;;;10.60;99.90;;;;;;5014956;28;20075;-75
2022/12/20 11:14:44;;;;;;;7.80;3.00;;;10.60;99.90;;;;;;5033309;28;20036;-74
2022/12/20 11:17:13;;;;;;;8.25;3.13;;;10.60;99.90;;;;;;5032541;28;20419;-74
2022/12/20 11:19:59;;;;;;;8.38;2.90;;;10.60;99.90;;;;;;5051432;28;20036;-76
2022/12/20 11:22:34;;;;;;;8.88;3.10;;;10.60;99.90;;;;;;4991760;28;20045;-74
2022/12/20 11:25:21;;;;;;;9.25;2.92;;;10.50;99.90;;;;;;5033363;28;20155;-75
2022/12/20 11:28:11;;;;;;;9.45;3.40;;;10.30;99.90;;;;;;5031490;28;20049;-75
2022/12/20 11:31:06;;;;;;;8.98;3.33;;;10.50;99.90;;;;;;5031645;28;20041;-74
2022/12/20 11:33:47;;;;;;;8.85;3.10;;;10.50;99.90;;;;;;5043471;28;20044;-75
2022/12/20 11:36:33;;;;;;;8.93;3.13;;;10.40;99.90;;;;;;5025016;28;20049;-75
2022/12/20 11:39:27;;;;;;;8.32;3.17;;;10.40;99.90;;;;;;5042679;28;20517;-75
2022/12/20 11:41:56;;;;;;;7.72;3.05;;;10.40;99.90;;;;;;5005253;28;20449;-75
2022/12/20 11:44:35;;;;;;;8.82;3.10;;;10.40;99.90;;;;;;5039657;28;20762;-74
2022/12/20 11:47:19;;;;;;;8.63;2.83;;;10.40;99.90;;;;;;5038132;28;21342;-75
2022/12/20 11:50:10;;;;;;;7.55;3.10;;;10.30;99.90;;;;;;5008227;28;20106;-74
2022/12/20 11:53:04;;;;;;;8.00;3.15;;;10.30;99.90;;;;;;5044658;28;20072;-75
2022/12/20 11:55:35;;;;;;;8.00;3.17;;;10.30;99.90;;;;;;5022660;28;20116;-75
2022/12/20 11:58:10;;;;;;;8.77;3.03;;;10.30;99.90;;;;;;5024991;28;20106;-74
2022/12/20 12:00:38;;;;;;;9.02;3.20;;;10.30;99.90;;;;;;5019276;28;21211;-75
2022/12/20 12:03:16;;;;;;;8.40;3.20;;;10.30;99.90;;;;;;5025103;28;20508;-75
2022/12/20 12:06:16;;;;;;;7.50;3.10;;;10.30;99.90;;;;;;5021973;28;20550;-75
2022/12/20 12:08:49;;;;;;;7.45;3.00;;;10.30;99.90;;;;;;5019875;28;20678;-76
2022/12/20 12:11:30;;;;;;;10.52;3.22;;;10.30;99.90;;;;;;5023735;28;22092;-74
2022/12/20 12:13:57;;;;;;;7.93;3.10;;;10.30;99.90;;;;;;5008278;28;20083;-74
2022/12/20 12:16:29;;;;;;;7.90;3.03;;;10.30;99.90;;;;;;5045388;28;20080;-75
2022/12/20 12:18:59;;;;;;;9.40;3.17;;;10.30;99.90;;;;;;5024762;28;20036;-75
2022/12/20 12:21:48;;;;;;;8.40;3.35;;;10.30;99.90;;;;;;5041719;28;20398;-75
2022/12/20 12:24:31;;;;;;;8.23;3.42;;;10.20;99.90;;;;;;5022243;28;20047;-76
2022/12/20 12:27:00;;;;;;;;;;;10.20;99.90;;;;;;5019923;28;20094;-75
2022/12/20 12:29:29;;;;;;;8.60;3.20;;;10.20;99.90;;;;;;5010236;28;19945;-75
2022/12/20 12:32:00;;;;;;;8.82;3.60;;;10.20;99.90;;;;;;5035368;28;20541;-77
2022/12/20 12:34:53;;;;;;;9.50;3.60;;;10.20;99.90;;;;;;5024363;28;20480;-75
2022/12/20 12:37:32;;;;;;;7.65;3.10;;;10.20;99.90;;;;;;5040947;28;20107;-75
2022/12/20 12:40:32;;;;;;;8.85;3.58;;;10.20;99.90;;;;;;5024334;28;20164;-75
2022/12/20 12:43:39;;;;;;;8.20;3.40;;;10.10;99.90;;;;;;5037270;28;20045;-74
2022/12/20 12:46:15;;;;;;;9.25;3.42;;;10.10;99.90;;;;;;5043231;28;20068;-75
2022/12/20 12:48:51;;;;;;;9.10;3.42;;;10.10;99.90;;;;;;5009403;28;20487;-75
2022/12/20 12:51:27;;;;;;;9.85;3.60;;;10.10;99.90;;;;;;5005071;28;20036;-75
2022/12/20 12:54:02;;;;;;;8.07;3.85;;;10.10;99.90;;;;;;5039271;28;20037;-75
2022/12/20 12:56:33;;;;;;;8.73;3.78;;;10.00;99.90;;;;;;5007689;28;20123;-74
2022/12/20 12:59:05;;;;;;;8.45;3.92;;;10.00;99.90;;;;;;5042669;28;20544;-75
2022/12/20 13:01:47;;;;;;;9.68;3.67;;;10.00;99.90;;;;;;5036296;28;20029;-75
2022/12/20 13:04:19;;;;;;;9.13;3.85;;;10.00;99.90;;;;;;5019420;28;20271;-75
2022/12/20 13:06:56;;;;;;;9.40;3.53;;;10.00;99.90;;;;;;5020295;28;20404;-75
2022/12/20 13:09:25;;;;;;;10.30;3.90;;;10.00;99.90;;;;;;5021517;28;20033;-75
2022/12/20 13:11:52;;;;;;;8.80;3.90;;;10.00;99.90;;;;;;5040721;28;20049;-74
2022/12/20 13:14:24;;;;;;;9.40;3.92;;;10.10;99.90;;;;;;5040479;28;20052;-75
2022/12/20 13:16:52;;;;;;;10.35;4.38;;;10.00;99.90;;;;;;5027213;28;20131;-76
2022/12/20 13:19:36;;;;;;;8.68;3.85;;;10.00;99.90;;;;;;5010453;28;20041;-75
2022/12/20 13:22:10;;;;;;;8.15;3.78;;;10.00;99.90;;;;;;5019703;28;20045;-75